Terminal Aerodrome Forecast
Issued by NWS Billings, MT

Home | Current Version | Previous Version | Text Only | Print | Product List | Glossary On
Versions: 1 2 3 4 5 6 7 8 9 10 11 12 13 14 15
000
FTUS45 KBYZ 191003 AAA
TAFMLS
TAF AMD
KMLS 191003Z 1910/2006 36008KT 6SM -RA FEW070 OVC090
     FM191300 33015G25KT P6SM VCSH SCT030 BKN050
     FM191800 31015G30KT P6SM VCSH SCT050 BKN080
     FM192200 27011KT P6SM SCT060=

USA.gov is the U.S. government's official web portal to all federal, state and local government web resources and services.